Terminal Aerodrome Forecast
Issued by NWS

Home | Current Version | Previous Version | Text Only | Print | Product List | Glossary On
Versions: 1 2 3 4 5 6 7 8 9 10 11 12 13 14 15 16 17 18 19 20 21 22 23 24 25 26 27 28 29 30 31 32 33 34 35 36 37 38 39 40 41 42 43 44 45 46 47 48 49 50
680
FTAK31 PANC 310528
TAFASN
TAF
PASN 310528Z 3106/0106 08015KT P6SM SCT025 OVC035
      TEMPO 3106/3108 BKN025 OVC035
     FM310800 08017KT P6SM BKN015
     FM311000 08020G27KT P6SM VCSH SCT007 OVC012
     FM311400 07025G35KT 4SM -RA BR OVC007
     FM010200 07021G28KT 6SM BR VCSH OVC005=

USA.gov is the U.S. government's official web portal to all federal, state and local government web resources and services.